Home > Products > Valid Products > MTR

000
SAUS45 KREV 040954
MTRDRA
METAR KDRA 040953Z AUTO 18010KT 10SM CLR 23/M01 A2982 RMK AO2 SLP047
T02281006 $





000
SAUS45 KREV 040855
MTRDRA
METAR KDRA 040853Z AUTO 20013KT 10SM CLR 23/M01 A2982 RMK AO2 SLP046
T02331006 51002 $





000
SAUS45 KREV 040754
MTRDRA
METAR KDRA 040753Z AUTO 19015KT 10SM CLR 24/M02 A2982 RMK AO2 SLP045
T02441017 403330211 $





000
SAUS45 KREV 040654
MTRDRA
METAR KDRA 040653Z AUTO 12003KT 10SM CLR 21/M03 A2982 RMK AO2 SLP050
T02111028 $





000
SAUS45 KREV 040555
MTRDRA
METAR KDRA 040553Z AUTO 24005KT 10SM CLR 23/M03 A2981 RMK AO2 SLP046
T02331028 10328 20233 51013 $





000
SAUS45 KREV 040555
MTRDRA
METAR KDRA 040553Z AUTO 24005KT 10SM CLR 23/M03 A2981 RMK AO2 SLP046
T02331028 10328 20233 51013 $





000
SAUS45 KREV 040455
MTRDRA
METAR KDRA 040453Z AUTO 22008KT 10SM CLR 26/M03 A2980 RMK AO2 SLP041
T02561028 $





000
SAUS45 KREV 040354
MTRDRA
METAR KDRA 040353Z AUTO 20010KT 10SM CLR 28/M02 A2979 RMK AO2 SLP037
T02781017 $





000
SAUS45 KREV 040254
MTRDRA
METAR KDRA 040253Z AUTO 22016G22KT 10SM CLR 29/M02 A2977 RMK AO2 PK
WND 20026/0239 SLP031 T02891017 55003 $





000
SAUS45 KREV 040254
MTRDRA
METAR KDRA 040253Z AUTO 22016G22KT 10SM CLR 29/M02 A2977 RMK AO2 PK
WND 20026/0239 SLP031 T02891017 55003 $





000
SAUS45 KREV 040155
MTRDRA
METAR KDRA 040153Z AUTO 20018G29KT 10SM CLR 30/M02 A2977 RMK AO2 PK
WND 21029/0148 SLP030 T03001017 $





000
SAUS45 KREV 040155
MTRDRA
METAR KDRA 040153Z AUTO 20018G29KT 10SM CLR 30/M02 A2977 RMK AO2 PK
WND 21029/0148 SLP030 T03001017 $





000
SAUS45 KREV 040055
MTRDRA
METAR KDRA 040053Z AUTO 19015G25KT 10SM CLR 32/M01 A2977 RMK AO2 PK
WND 19027/0012 SLP030 T03171011 $





000
SAUS45 KREV 040055
MTRDRA
METAR KDRA 040053Z AUTO 19015G25KT 10SM CLR 32/M01 A2977 RMK AO2 PK
WND 19027/0012 SLP030 T03171011 $





000
SAUS45 KREV 032355
MTRDRA
METAR KDRA 032353Z AUTO 19016G23KT 10SM CLR 33/M02 A2978 RMK AO2 PK
WND 20031/2307 SLP032 T03281022 10333 20306 56022 $





000
SAUS45 KREV 032355
MTRDRA
METAR KDRA 032353Z AUTO 19016G23KT 10SM CLR 33/M02 A2978 RMK AO2 PK
WND 20031/2307 SLP032 T03281022 10333 20306 56022 $





000
SAUS45 KREV 032255
MTRDRA
METAR KDRA 032253Z AUTO 22022G30KT 10SM CLR 33/M02 A2980 RMK AO2 PK
WND 24030/2246 SLP038 T03281017 $





000
SAUS45 KREV 032154
MTRDRA
METAR KDRA 032153Z AUTO 22021G27KT 10SM CLR 33/M02 A2983 RMK AO2 PK
WND 22030/2120 SLP046 T03281022 $





000
SAUS45 KREV 032154
MTRDRA
METAR KDRA 032153Z AUTO 22021G27KT 10SM CLR 33/M02 A2983 RMK AO2 PK
WND 22030/2120 SLP046 T03281022 $





000
SAUS45 KREV 032054
MTRDRA
METAR KDRA 032053Z AUTO 22021G31KT 10SM CLR 33/M01 A2985 RMK AO2 PK
WND 21031/2016 SLP054 T03281011 58015 $





000
SAUS45 KREV 031954
MTRDRA
METAR KDRA 031953Z AUTO 19014G24KT 10SM CLR 32/M02 A2988 RMK AO2 PK
WND 19027/1910 SLP063 T03171022 $





000
SAUS45 KREV 031855
MTRDRA
METAR KDRA 031853Z AUTO 23016G30KT 10SM CLR 32/M03 A2989 RMK AO2 PK
WND 18032/1813 SLP065 T03221028 $





000
SAUS45 KREV 031855
MTRDRA
METAR KDRA 031853Z AUTO 23016G30KT 10SM CLR 32/M03 A2989 RMK AO2 PK
WND 18032/1813 SLP065 T03221028 $





000
SAUS45 KREV 031755
MTRDRA
METAR KDRA 031753Z AUTO 18017G29KT 10SM CLR 31/M04 A2990 RMK AO2 PK
WND 19029/1750 SLP071 T03061039 10311 20222 58002 $





000
SAUS45 KREV 031655
MTRDRA
METAR KDRA 031653Z AUTO 22016G22KT 10SM CLR 30/M04 A2991 RMK AO2
SLP075 T03001039 $





000
SAUS45 KREV 031554
MTRDRA
METAR KDRA 031553Z AUTO 25011KT 10SM CLR 27/M02 A2991 RMK AO2 SLP078
T02671022 $





000
SAUS45 KREV 031454
MTRDRA
METAR KDRA 031453Z AUTO 24010KT 10SM CLR 25/M02 A2991 RMK AO2 SLP078
T02501022 53005 $





000
SAUS45 KREV 031454
MTRDRA
METAR KDRA 031453Z AUTO 24010KT 10SM CLR 25/M02 A2991 RMK AO2 SLP078
T02501022 53005 $





000
SAUS45 KREV 031354
MTRDRA
METAR KDRA 031353Z AUTO 21014G20KT 10SM CLR 23/M02 A2990 RMK AO2
SLP076 T02331022 $





000
SAUS45 KREV 031354
MTRDRA
METAR KDRA 031353Z AUTO 21014G20KT 10SM CLR 23/M02 A2990 RMK AO2
SLP076 T02331022 $





000
SAUS45 KREV 031254
MTRDRA
METAR KDRA 031253Z AUTO 20007KT 10SM CLR 23/M02 A2989 RMK AO2 SLP073
T02281017 $





000
SAUS45 KREV 031254
MTRDRA
METAR KDRA 031253Z AUTO 20007KT 10SM CLR 23/M02 A2989 RMK AO2 SLP073
T02281017 $





000
SAUS45 KREV 031155
MTRDRA
METAR KDRA 031153Z AUTO 22011KT 10SM CLR 23/M01 A2990 RMK AO2 SLP070
T02331011 10289 20233 53005 $





000
SAUS45 KREV 031055
MTRDRA
METAR KDRA 031053Z AUTO 23013KT 10SM CLR 24/M01 A2989 RMK AO2 SLP068
T02441006 $





000
SAUS45 KREV 031055
MTRDRA
METAR KDRA 031053Z AUTO 23013KT 10SM CLR 24/M01 A2989 RMK AO2 SLP068
T02441006 $





000
SAUS45 KREV 030954
MTRDRA
METAR KDRA 030953Z AUTO 23015KT 10SM CLR 26/01 A2988 RMK AO2 SLP062
T02610011 $





000
SAUS45 KREV 030855
MTRDRA
METAR KDRA 030853Z AUTO 19014G21KT 10SM CLR 27/01 A2988 RMK AO2
SLP062 T02720011 58002 $





000
SAUS45 KREV 030754
MTRDRA
METAR KDRA 030753Z AUTO 21009KT 10SM CLR 27/00 A2989 RMK AO2 SLP068
T02720000 403500217 $





000
SAUS45 KREV 030754
MTRDRA
METAR KDRA 030753Z AUTO 21009KT 10SM CLR 27/00 A2989 RMK AO2 SLP068
T02720000 403500217 $





000
SAUS45 KREV 030655
MTRDRA
METAR KDRA 030653Z AUTO 19015G20KT 10SM CLR 28/01 A2989 RMK AO2
SLP068 T02830006 $





000
SAUS45 KREV 030655
MTRDRA
METAR KDRA 030653Z AUTO 19015G20KT 10SM CLR 28/01 A2989 RMK AO2
SLP068 T02830006 $





000
SAUS45 KREV 030555
MTRDRA
METAR KDRA 030553Z AUTO 20015G21KT 10SM CLR 29/04 A2989 RMK AO2
SLP065 T02890039 10339 20278 51006 $





000
SAUS45 KREV 030555
MTRDRA
METAR KDRA 030553Z AUTO 20015G21KT 10SM CLR 29/04 A2989 RMK AO2
SLP065 T02890039 10339 20278 51006 $





000
SAUS45 KREV 030454
MTRDRA
METAR KDRA 030453Z AUTO 15006KT 10SM CLR 28/02 A2988 RMK AO2 SLP064
T02780017 $





000
SAUS45 KREV 030354
MTRDRA
METAR KDRA 030353Z AUTO 17007KT 10SM CLR 28/00 A2988 RMK AO2 SLP066
T02830000 $





000
SAUS45 KREV 030254
MTRDRA
METAR KDRA 030253Z AUTO 20014KT 10SM CLR 30/M02 A2987 RMK AO2 SLP061
T03001017 55001 $





000
SAUS45 KREV 030254
MTRDRA
METAR KDRA 030253Z AUTO 20014KT 10SM CLR 30/M02 A2987 RMK AO2 SLP061
T03001017 55001 $





000
SAUS45 KREV 030154
MTRDRA
METAR KDRA 030153Z AUTO 22012KT 10SM CLR 31/M02 A2986 RMK AO2 SLP061
T03111022 $





000
SAUS45 KREV 030055
MTRDRA
METAR KDRA 030053Z AUTO 22015G21KT 10SM CLR 32/M01 A2987 RMK AO2
SLP063 T03171006 $





000
SAUS45 KREV 022355
MTRDRA
METAR KDRA 022353Z AUTO 22018G25KT 10SM CLR 34/M01 A2987 RMK AO2 PK
WND 21029/2306 SLP060 T03391011 10350 20311 56017 $





000
SAUS45 KREV 022355
MTRDRA
METAR KDRA 022353Z AUTO 22018G25KT 10SM CLR 34/M01 A2987 RMK AO2 PK
WND 21029/2306 SLP060 T03391011 10350 20311 56017 $





000
SAUS45 KREV 022255
MTRDRA
METAR KDRA 022253Z AUTO 19017G27KT 10SM CLR 34/02 A2988 RMK AO2 PK
WND 20029/2204 SLP061 T03390017 $





000
SAUS45 KREV 022155
MTRDRA
METAR KDRA 022153Z AUTO 19019G28KT 10SM CLR 34/00 A2990 RMK AO2 PK
WND 21028/2054 SLP067 T03440000 $





000
SAUS45 KREV 022155
MTRDRA
METAR KDRA 022153Z AUTO 19019G28KT 10SM CLR 34/00 A2990 RMK AO2 PK
WND 21028/2054 SLP067 T03440000 $





000
SAUS45 KREV 022054
MTRDRA
METAR KDRA 022053Z AUTO 22020G28KT 10SM CLR 33/03 A2993 RMK AO2 PK
WND 22029/2028 SLP076 T03330028 58017 $





000
SAUS45 KREV 021954
MTRDRA
METAR KDRA 021953Z AUTO 20017G25KT 10SM CLR 33/03 A2995 RMK AO2 PK
WND 22035/1934 SLP085 T03280028 $





000
SAUS45 KREV 021854
MTRDRA
METAR KDRA 021853Z AUTO 22021G27KT 10SM CLR 32/04 A2997 RMK AO2 PK
WND 22027/1852 SLP091 T03170044 $





000
SAUS45 KREV 021755
MTRDRA
METAR KDRA 021753Z AUTO 21018G25KT 10SM CLR 31/06 A2998 RMK AO2 PK
WND 19026/1714 SLP096 T03110061 10317 20217 55001 $





000
SAUS45 KREV 021655
MTRDRA
METAR KDRA 021653Z AUTO 20016G23KT 10SM CLR 31/06 A2998 RMK AO2
SLP097 T03110056 $





000
SAUS45 KREV 021554
MTRDRA
METAR KDRA 021553Z AUTO 21014G20KT 10SM CLR 29/09 A2998 RMK AO2
SLP097 T02890094 $





000
SAUS45 KREV 021454
MTRDRA
METAR KDRA 021453Z AUTO 23010KT 10SM CLR 27/09 A2998 RMK AO2 SLP101
T02670094 51010 $





000
SAUS45 KREV 021454
MTRDRA
METAR KDRA 021453Z AUTO 23010KT 10SM CLR 27/09 A2998 RMK AO2 SLP101
T02670094 51010 $





000
SAUS45 KREV 021356
MTRDRA
METAR KDRA 021353Z AUTO 25006KT 10SM CLR 24/08 A2998 RMK AO2 SLP099
T02440083 $





000
SAUS45 KREV 021255
MTRDRA
METAR KDRA 021253Z AUTO 13003KT 10SM CLR 24/07 A2996 RMK AO2 SLP093
T02390067 $





000
SAUS45 KREV 021255
MTRDRA
METAR KDRA 021253Z AUTO 13003KT 10SM CLR 24/07 A2996 RMK AO2 SLP093
T02390067 $





000
SAUS45 KREV 021155
MTRDRA
METAR KDRA 021153Z AUTO 25008KT 10SM CLR 26/07 A2995 RMK AO2 SLP087
T02560067 10294 20250 50002 $





000
SAUS45 KREV 021155
MTRDRA
METAR KDRA 021153Z AUTO 25008KT 10SM CLR 26/07 A2995 RMK AO2 SLP087
T02560067 10294 20250 50002 $





000
SAUS45 KREV 021055
MTRDRA
METAR KDRA 021053Z AUTO 21009KT 10SM CLR 27/07 A2995 RMK AO2 SLP085
T02670072 $





000
SAUS45 KREV 020954
MTRDRA
METAR KDRA 020953Z AUTO 20014KT 10SM CLR 28/07 A2994 RMK AO2 SLP083
T02780067 $





000
SAUS45 KREV 020954
MTRDRA
METAR KDRA 020953Z AUTO 20014KT 10SM CLR 28/07 A2994 RMK AO2 SLP083
T02780067 $





000
SAUS45 KREV 020855
MTRDRA
METAR KDRA 020853Z AUTO 21016KT 10SM CLR 28/04 A2994 RMK AO2 SLP081
T02830039 50002 $





000
SAUS45 KREV 020855
MTRDRA
METAR KDRA 020853Z AUTO 21016KT 10SM CLR 28/04 A2994 RMK AO2 SLP081
T02830039 50002 $





000
SAUS45 KREV 020754
MTRDRA
METAR KDRA 020753Z AUTO 19016G21KT 10SM CLR 29/07 A2994 RMK AO2
SLP081 T02890067 403500178 $





000
SAUS45 KREV 020754
MTRDRA
METAR KDRA 020753Z AUTO 19016G21KT 10SM CLR 29/07 A2994 RMK AO2
SLP081 T02890067 403500178 $





000
SAUS45 KREV 020654
MTRDRA
METAR KDRA 020653Z AUTO 20016KT 10SM CLR 29/10 A2994 RMK AO2 SLP082
T02890100 $





000
SAUS45 KREV 020654
MTRDRA
METAR KDRA 020653Z AUTO 20016KT 10SM CLR 29/10 A2994 RMK AO2 SLP082
T02890100 $





000
SAUS45 KREV 020555
MTRDRA
METAR KDRA 020553Z AUTO 19011G19KT 10SM OVC080 29/11 A2994 RMK AO2
SLP080 T02940106 10339 20278 51008 $





000
SAUS45 KREV 020555
MTRDRA
METAR KDRA 020553Z AUTO 19011G19KT 10SM OVC080 29/11 A2994 RMK AO2
SLP080 T02940106 10339 20278 51008 $





000
SAUS45 KREV 020454
MTRDRA
METAR KDRA 020453Z AUTO 10003KT 10SM CLR 28/08 A2993 RMK AO2 SLP083
T02830078 $





000
SAUS45 KREV 020454
MTRDRA
METAR KDRA 020453Z AUTO 10003KT 10SM CLR 28/08 A2993 RMK AO2 SLP083
T02830078 $





000
SAUS45 KREV 020356
MTRDRA
METAR KDRA 020353Z AUTO 20008KT 10SM CLR 29/07 A2993 RMK AO2 SLP083
T02940072 $





000
SAUS45 KREV 020254
MTRDRA
METAR KDRA 020253Z AUTO 22011KT 10SM CLR 30/07 A2991 RMK AO2 SLP079
T03000072 53006 $





000
SAUS45 KREV 020254
MTRDRA
METAR KDRA 020253Z AUTO 22011KT 10SM CLR 30/07 A2991 RMK AO2 SLP079
T03000072 53006 $





000
SAUS45 KREV 020154
MTRDRA
METAR KDRA 020153Z AUTO 23013KT 10SM CLR 32/04 A2989 RMK AO2 SLP076
T03170039 $





000
SAUS45 KREV 020154
MTRDRA
METAR KDRA 020153Z AUTO 23013KT 10SM CLR 32/04 A2989 RMK AO2 SLP076
T03170039 $





000
SAUS45 KREV 020055
MTRDRA
METAR KDRA 020053Z AUTO 21015G21KT 10SM CLR 33/04 A2989 RMK AO2 PK
WND 21026/0002 SLP073 T03280044 $





000
SAUS45 KREV 012354
MTRDRA
METAR KDRA 012353Z AUTO 23016G25KT 10SM CLR 34/04 A2989 RMK AO2 PK
WND 21030/2259 SLP073 T03390044 10350 20322 56016 $





000
SAUS45 KREV 012255
MTRDRA
METAR KDRA 012253Z AUTO 19015G24KT 10SM CLR 34/05 A2990 RMK AO2 PK
WND 22035/2230 SLP075 T03440050 $





000
SAUS45 KREV 012255
MTRDRA
METAR KDRA 012253Z AUTO 19015G24KT 10SM CLR 34/05 A2990 RMK AO2 PK
WND 22035/2230 SLP075 T03440050 $





000
SAUS45 KREV 012155
MTRDRA
METAR KDRA 012153Z AUTO 24015G24KT 10SM CLR 34/04 A2992 RMK AO2 PK
WND 23027/2116 SLP079 T03440039 $





000
SAUS45 KREV 012054
MTRDRA
METAR KDRA 012053Z AUTO 21017G24KT 10SM CLR 34/01 A2994 RMK AO2 PK
WND 22028/1956 SLP086 T03440011 58009 $





000
SAUS45 KREV 011954
MTRDRA
METAR KDRA 011953Z AUTO 22014G27KT 10SM CLR 34/01 A2996 RMK AO2 PK
WND 23027/1948 SLP091 T03390006 $





000
SAUS45 KREV 011854
MTRDRA
METAR KDRA 011853Z AUTO 21019G27KT 10SM CLR 33/01 A2996 RMK AO2 PK
WND 23027/1838 SLP090 T03330006 $





000
SAUS45 KREV 011756
MTRDRA
METAR KDRA 011753Z AUTO 21013G22KT 10SM CLR 32/01 A2997 RMK AO2
SLP093 T03220011 10328 20178 50001 $





000
SAUS45 KREV 011655
MTRDRA
METAR KDRA 011653Z AUTO 10SM CLR 30/01 A2997 RMK AO2 SLP095
T03000006 $





000
SAUS45 KREV 011554
MTRDRA
METAR KDRA 011553Z AUTO 00000KT 10SM CLR 27/M01 A2997 RMK AO2 SLP098
T02721006 $





000
SAUS45 KREV 011454
MTRDRA
METAR KDRA 011453Z AUTO 00000KT 10SM CLR 23/M02 A2997 RMK AO2 SLP098
T02331017 53016 $





000
SAUS45 KREV 011356
MTRDRA
METAR KDRA 011353Z AUTO 00000KT 10SM CLR 19/M01 A2994 RMK AO2 SLP092
T01941006 $





000
SAUS45 KREV 011356
MTRDRA
METAR KDRA 011353Z AUTO 00000KT 10SM CLR 19/M01 A2994 RMK AO2 SLP092
T01941006 $





000
SAUS45 KREV 011254
MTRDRA
METAR KDRA 011253Z AUTO 07003KT 10SM CLR 19/M02 A2993 RMK AO2 SLP087
T01941017 $





000
SAUS45 KREV 011254
MTRDRA
METAR KDRA 011253Z AUTO 07003KT 10SM CLR 19/M02 A2993 RMK AO2 SLP087
T01941017 $





000
SAUS45 KREV 011155
MTRDRA
METAR KDRA 011153Z AUTO 00000KT 10SM CLR 19/M02 A2991 RMK AO2 SLP081
T01941017 10294 20189 50003 $





000
SAUS45 KREV 011155
MTRDRA
METAR KDRA 011153Z AUTO 00000KT 10SM CLR 19/M02 A2991 RMK AO2 SLP081
T01941017 10294 20189 50003 $





000
SAUS45 KREV 011055
MTRDRA
METAR KDRA 011053Z AUTO 04006KT 10SM CLR 21/M02 A2992 RMK AO2 SLP078
T02111022 $





000
SAUS45 KREV 011055
MTRDRA
METAR KDRA 011053Z AUTO 04006KT 10SM CLR 21/M02 A2992 RMK AO2 SLP078
T02111022 $





    US Dept of Commerce
    National Oceanic and Atmospheric Administration
    National Weather Service
    1325 East West Highway
    Silver Spring, MD 20910
    Page Author: NWS Internet Services Team
Disclaimer
Information Quality
Credits
Glossary
Privacy Policy
Freedom of Information Act (FOIA)
About Us
Career Opportunities